createdAt,value
2017-01-27T00:00:10.712Z,0
2017-01-27T00:00:51.207Z,0
2017-01-27T00:01:31.700Z,0
2017-01-27T00:02:12.204Z,0
2017-01-27T00:02:52.686Z,0
2017-01-27T00:03:33.170Z,0
2017-01-27T00:04:13.695Z,0
2017-01-27T00:04:54.180Z,0
2017-01-27T00:05:34.679Z,0
2017-01-27T00:06:15.169Z,0
2017-01-27T00:06:55.659Z,0
2017-01-27T00:07:36.139Z,0
2017-01-27T00:08:16.624Z,0
2017-01-27T00:08:57.108Z,0
2017-01-27T00:09:37.596Z,0
2017-01-27T00:10:18.098Z,0
2017-01-27T00:10:58.621Z,0
2017-01-27T00:11:39.104Z,0
2017-01-27T00:12:19.600Z,0
2017-01-27T00:13:00.091Z,0
2017-01-27T00:13:40.608Z,0
2017-01-27T00:14:21.065Z,0
2017-01-27T00:15:01.551Z,0
2017-01-27T00:15:42.044Z,0
2017-01-27T00:16:22.538Z,0
2017-01-27T00:17:03.027Z,0
2017-01-27T00:17:43.522Z,0
2017-01-27T00:18:24.034Z,0
2017-01-27T00:19:04.539Z,0
2017-01-27T00:19:45.025Z,0
2017-01-27T00:20:26.049Z,0
2017-01-27T00:21:06.534Z,0
2017-01-27T00:21:47.024Z,0
2017-01-27T00:22:27.509Z,0
2017-01-27T00:23:08.015Z,0
2017-01-27T00:23:48.503Z,0
2017-01-27T00:24:28.999Z,0
2017-01-27T00:25:09.492Z,0
2017-01-27T00:25:49.980Z,0
2017-01-27T00:26:30.465Z,0
2017-01-27T00:27:10.967Z,0
2017-01-27T00:27:51.471Z,0
2017-01-27T00:28:31.943Z,0
2017-01-27T00:29:12.433Z,0
2017-01-27T00:29:52.943Z,0
2017-01-27T00:30:33.437Z,0
2017-01-27T00:31:13.957Z,0
2017-01-27T00:31:54.422Z,0
2017-01-27T00:32:34.908Z,0
2017-01-27T00:33:15.380Z,0
2017-01-27T00:33:55.872Z,0
2017-01-27T00:34:36.355Z,0
2017-01-27T00:35:16.839Z,0
2017-01-27T00:35:57.332Z,0
2017-01-27T00:36:37.828Z,0
2017-01-27T00:37:18.316Z,0
2017-01-27T00:37:58.797Z,0
2017-01-27T00:38:39.287Z,0
2017-01-27T00:39:19.778Z,0
2017-01-27T00:40:00.271Z,0
2017-01-27T00:40:40.772Z,0
2017-01-27T00:41:21.276Z,0
2017-01-27T00:42:01.758Z,0
2017-01-27T00:42:42.278Z,0
2017-01-27T00:43:22.769Z,0
2017-01-27T00:44:03.273Z,0
2017-01-27T00:44:43.779Z,0
2017-01-27T00:45:24.271Z,0
2017-01-27T00:46:04.765Z,0
2017-01-27T00:46:45.274Z,0
2017-01-27T00:47:25.755Z,0
2017-01-27T00:48:06.246Z,0
2017-01-27T00:48:46.755Z,0
2017-01-27T00:49:27.248Z,0
2017-01-27T00:50:07.760Z,0
2017-01-27T00:50:48.241Z,0
2017-01-27T00:51:28.752Z,0
2017-01-27T00:52:09.237Z,0
2017-01-27T00:52:49.720Z,0
2017-01-27T00:53:30.211Z,0
2017-01-27T00:54:10.705Z,0
2017-01-27T00:54:51.199Z,0
2017-01-27T00:55:31.711Z,0
2017-01-27T00:56:12.196Z,0
2017-01-27T00:56:52.690Z,0
2017-01-27T00:57:33.198Z,0
2017-01-27T00:58:13.685Z,0
2017-01-27T00:58:54.193Z,0
2017-01-27T00:59:34.681Z,0
2017-01-27T01:00:15.161Z,0
2017-01-27T01:00:55.742Z,0
2017-01-27T01:01:36.236Z,0
2017-01-27T01:02:16.756Z,0
2017-01-27T01:02:57.252Z,0
2017-01-27T01:03:37.751Z,0
2017-01-27T01:04:18.254Z,0
2017-01-27T01:04:58.741Z,0
2017-01-27T01:05:39.254Z,0
2017-01-27T01:06:19.738Z,0
2017-01-27T01:07:00.254Z,0
2017-01-27T01:07:40.740Z,0
2017-01-27T01:08:21.229Z,0
2017-01-27T01:09:01.738Z,0
2017-01-27T01:09:42.225Z,0
2017-01-27T01:10:22.720Z,0
2017-01-27T01:11:03.214Z,0
2017-01-27T01:11:43.701Z,0
2017-01-27T01:12:24.207Z,0
2017-01-27T01:13:04.699Z,0
2017-01-27T01:13:45.178Z,0
2017-01-27T01:14:25.669Z,0
2017-01-27T01:15:06.150Z,0
2017-01-27T01:15:46.644Z,0
2017-01-27T01:16:27.139Z,0
2017-01-27T01:17:07.628Z,0
2017-01-27T01:17:48.139Z,0
2017-01-27T01:18:28.624Z,0
2017-01-27T01:19:09.123Z,0
2017-01-27T01:19:49.627Z,0
2017-01-27T01:20:30.116Z,0
2017-01-27T01:21:10.618Z,0
2017-01-27T01:21:51.102Z,0
2017-01-27T01:22:31.591Z,0
2017-01-27T01:23:12.081Z,0
2017-01-27T01:23:52.585Z,0
2017-01-27T01:24:33.070Z,0
2017-01-27T01:25:13.552Z,0
2017-01-27T01:25:54.038Z,0
2017-01-27T01:26:34.544Z,0
2017-01-27T01:27:15.035Z,0
2017-01-27T01:27:55.528Z,0
2017-01-27T01:28:36.026Z,0
2017-01-27T01:29:16.580Z,0
2017-01-27T01:29:57.061Z,0
2017-01-27T01:30:37.547Z,0
2017-01-27T01:31:18.037Z,0
2017-01-27T01:31:58.542Z,0
2017-01-27T01:32:39.028Z,0
2017-01-27T01:33:19.516Z,0
2017-01-27T01:34:00.018Z,0
2017-01-27T01:34:40.507Z,0
2017-01-27T01:35:21.014Z,0
2017-01-27T01:36:01.503Z,0
2017-01-27T01:36:42.032Z,0
2017-01-27T01:37:22.503Z,0
2017-01-27T01:38:02.994Z,0
2017-01-27T01:38:43.492Z,0
2017-01-27T01:39:23.984Z,0
2017-01-27T01:40:04.466Z,0
2017-01-27T01:40:44.958Z,0
2017-01-27T01:41:25.441Z,0
2017-01-27T01:42:05.942Z,0
2017-01-27T01:42:46.436Z,0
2017-01-27T01:43:26.932Z,0
2017-01-27T01:44:07.419Z,0
2017-01-27T01:44:47.908Z,0
2017-01-27T01:45:28.402Z,0
2017-01-27T01:46:08.884Z,0
2017-01-27T01:46:49.381Z,0
2017-01-27T01:47:29.875Z,0
2017-01-27T01:48:10.363Z,0
2017-01-27T01:48:50.856Z,0
2017-01-27T01:49:31.360Z,0
2017-01-27T01:50:11.862Z,0
2017-01-27T01:50:52.355Z,0
2017-01-27T01:51:32.838Z,0
2017-01-27T01:52:13.326Z,0
2017-01-27T01:52:53.806Z,0
2017-01-27T01:53:34.326Z,0
2017-01-27T01:54:14.807Z,0
2017-01-27T01:54:55.313Z,0
2017-01-27T01:55:35.801Z,0
2017-01-27T01:56:16.292Z,0
2017-01-27T01:56:56.791Z,0
2017-01-27T01:57:37.282Z,0
2017-01-27T01:58:17.770Z,0
2017-01-27T01:58:58.254Z,0
2017-01-27T01:59:38.802Z,0
2017-01-27T02:00:19.294Z,0
2017-01-27T02:00:59.793Z,0
2017-01-27T02:01:40.273Z,0
2017-01-27T02:02:20.766Z,0
2017-01-27T02:03:01.250Z,0
2017-01-27T02:03:41.741Z,0
2017-01-27T02:04:22.240Z,0
2017-01-27T02:05:02.732Z,0
2017-01-27T02:05:43.251Z,0
2017-01-27T02:06:23.740Z,0
2017-01-27T02:07:04.234Z,0
2017-01-27T02:09:01.890Z,0
2017-01-27T02:09:42.381Z,0
2017-01-27T02:10:22.888Z,0
2017-01-27T02:11:03.379Z,0
2017-01-27T02:11:43.864Z,0
2017-01-27T02:12:24.354Z,0
2017-01-27T02:13:04.840Z,0
2017-01-27T02:13:45.333Z,0
2017-01-27T02:14:25.819Z,0
2017-01-27T02:15:06.303Z,0
2017-01-27T02:15:46.791Z,0
2017-01-27T02:16:27.281Z,0
2017-01-27T02:17:07.784Z,0
2017-01-27T02:17:48.269Z,0
2017-01-27T02:18:28.781Z,0
2017-01-27T02:19:09.271Z,0
2017-01-27T02:19:49.756Z,0
2017-01-27T02:20:30.242Z,0
2017-01-27T02:21:10.732Z,0
2017-01-27T02:21:51.228Z,0
2017-01-27T02:22:31.723Z,0
2017-01-27T02:23:12.224Z,0
2017-01-27T02:23:52.720Z,0
2017-01-27T02:24:33.222Z,0
2017-01-27T02:25:13.712Z,0
2017-01-27T02:25:54.199Z,0
2017-01-27T02:26:34.679Z,0
2017-01-27T02:27:15.169Z,0
2017-01-27T02:27:55.671Z,0
2017-01-27T02:28:36.169Z,0
2017-01-27T02:29:16.668Z,0
2017-01-27T02:29:57.157Z,0
2017-01-27T02:30:37.672Z,0
2017-01-27T02:31:18.162Z,0
2017-01-27T02:31:58.671Z,0
2017-01-27T02:32:39.166Z,0
2017-01-27T02:33:19.662Z,0
2017-01-27T02:34:00.151Z,0
2017-01-27T02:34:40.637Z,0
2017-01-27T02:35:21.125Z,0
2017-01-27T02:36:01.613Z,0
2017-01-27T02:36:42.110Z,0
2017-01-27T02:37:22.611Z,0
2017-01-27T02:38:03.106Z,0
2017-01-27T02:38:43.598Z,0
2017-01-27T02:39:24.111Z,0
2017-01-27T02:40:04.751Z,0
2017-01-27T02:40:45.250Z,0
2017-01-27T02:41:25.741Z,0
2017-01-27T02:42:07.129Z,0
2017-01-27T02:42:47.619Z,0
2017-01-27T02:43:28.105Z,0
2017-01-27T02:44:08.586Z,0
2017-01-27T02:44:49.079Z,0
2017-01-27T02:45:29.575Z,0
2017-01-27T02:46:10.108Z,0
2017-01-27T02:46:50.601Z,0
2017-01-27T02:47:31.087Z,0
2017-01-27T02:48:11.576Z,0
2017-01-27T02:48:52.061Z,0
2017-01-27T02:49:32.569Z,0
2017-01-27T02:50:13.063Z,0
2017-01-27T02:50:53.552Z,0
2017-01-27T02:51:34.034Z,0
2017-01-27T02:52:14.531Z,0
2017-01-27T02:52:55.018Z,0
2017-01-27T02:53:35.506Z,0
2017-01-27T02:54:16.080Z,0
2017-01-27T02:54:56.567Z,0
2017-01-27T02:55:37.082Z,0
2017-01-27T02:56:17.571Z,0
2017-01-27T02:56:58.056Z,0
2017-01-27T02:57:38.547Z,0
2017-01-27T02:58:19.051Z,0
2017-01-27T02:58:59.540Z,0
2017-01-27T02:59:40.029Z,0
2017-01-27T03:00:20.525Z,0
2017-01-27T03:01:01.016Z,0
2017-01-27T03:01:41.509Z,0
2017-01-27T03:02:22.008Z,0
2017-01-27T03:03:02.495Z,0
2017-01-27T03:03:43.009Z,0
2017-01-27T03:04:23.495Z,0
2017-01-27T03:05:03.994Z,0
2017-01-27T03:05:44.493Z,0
2017-01-27T03:06:25.094Z,0
2017-01-27T03:07:05.454Z,0
2017-01-27T03:07:45.941Z,0
2017-01-27T03:08:26.456Z,0
2017-01-27T03:09:06.944Z,0
2017-01-27T03:09:47.446Z,0
2017-01-27T03:10:27.937Z,0
2017-01-27T03:11:08.424Z,0
2017-01-27T03:11:48.920Z,0
2017-01-27T03:12:29.413Z,0
2017-01-27T03:13:09.901Z,0
2017-01-27T03:13:50.374Z,0
2017-01-27T03:14:30.859Z,0
2017-01-27T03:15:11.351Z,0
2017-01-27T03:15:52.051Z,0
2017-01-27T03:16:32.549Z,0
2017-01-27T03:17:13.046Z,0
2017-01-27T03:17:53.546Z,0
2017-01-27T03:18:34.177Z,0
2017-01-27T03:19:14.655Z,0
2017-01-27T03:19:55.148Z,0
2017-01-27T03:20:35.651Z,0
2017-01-27T03:21:16.138Z,0
2017-01-27T03:21:56.672Z,0
2017-01-27T03:22:37.195Z,0
2017-01-27T03:23:17.673Z,0
2017-01-27T03:23:58.163Z,0
2017-01-27T03:24:38.650Z,0
2017-01-27T03:25:19.143Z,0
2017-01-27T03:25:59.638Z,0
2017-01-27T03:26:40.129Z,0
2017-01-27T03:27:20.621Z,0
2017-01-27T03:28:01.100Z,0
2017-01-27T03:28:41.604Z,0
2017-01-27T03:29:22.089Z,0
2017-01-27T03:30:02.586Z,0
2017-01-27T03:30:43.086Z,0
2017-01-27T03:31:23.582Z,0
2017-01-27T03:32:04.085Z,0
2017-01-27T03:32:44.571Z,0
2017-01-27T03:33:25.052Z,0
2017-01-27T03:34:05.537Z,0
2017-01-27T03:34:46.025Z,0
2017-01-27T03:35:26.530Z,0
2017-01-27T03:36:07.015Z,0
2017-01-27T03:36:47.529Z,0
2017-01-27T03:37:28.024Z,0
2017-01-27T03:38:08.525Z,0
2017-01-27T03:38:49.024Z,0
2017-01-27T03:39:29.525Z,0
2017-01-27T03:40:10.017Z,0
2017-01-27T03:40:50.504Z,0
2017-01-27T03:41:31.000Z,0
2017-01-27T03:42:11.489Z,0
2017-01-27T03:42:51.973Z,0
2017-01-27T03:43:32.459Z,0
2017-01-27T03:44:12.970Z,0
2017-01-27T03:44:53.460Z,0
2017-01-27T03:45:33.943Z,0
2017-01-27T03:46:14.638Z,0
2017-01-27T03:46:55.272Z,0
2017-01-27T03:47:35.827Z,0
2017-01-27T03:48:16.319Z,0
2017-01-27T03:48:56.798Z,0
2017-01-27T03:49:37.287Z,0
2017-01-27T03:50:17.797Z,0
2017-01-27T03:50:58.416Z,0
2017-01-27T03:51:39.069Z,0
2017-01-27T03:52:19.559Z,0
2017-01-27T03:53:00.074Z,0
2017-01-27T03:53:40.577Z,0
2017-01-27T03:54:21.065Z,0
2017-01-27T03:55:01.555Z,0
2017-01-27T03:55:42.065Z,0
2017-01-27T03:56:22.568Z,0
2017-01-27T03:57:03.064Z,0
2017-01-27T03:57:43.568Z,0
2017-01-27T03:58:24.029Z,0
2017-01-27T03:59:04.527Z,0
2017-01-27T03:59:45.018Z,0
2017-01-27T04:00:25.512Z,0
2017-01-27T04:01:06.019Z,0
2017-01-27T04:01:46.507Z,0
2017-01-27T04:02:26.981Z,0
2017-01-27T04:03:07.465Z,0
2017-01-27T04:03:47.949Z,0
2017-01-27T04:04:28.442Z,0
2017-01-27T04:05:08.934Z,0
2017-01-27T04:05:49.437Z,0
2017-01-27T04:06:29.918Z,0
2017-01-27T04:07:10.415Z,0
2017-01-27T04:07:50.908Z,0
2017-01-27T04:08:31.409Z,0
2017-01-27T04:09:11.894Z,0
2017-01-27T04:09:52.390Z,0
2017-01-27T04:10:32.871Z,0
2017-01-27T04:11:13.357Z,0
2017-01-27T04:11:53.842Z,0
2017-01-27T04:12:34.333Z,0
2017-01-27T04:13:14.806Z,0
2017-01-27T04:13:55.296Z,0
2017-01-27T04:14:35.800Z,0
2017-01-27T04:15:16.287Z,0
2017-01-27T04:15:56.801Z,0
2017-01-27T04:16:37.290Z,0
2017-01-27T04:17:17.776Z,0
2017-01-27T04:17:58.265Z,0
2017-01-27T04:18:38.766Z,0
2017-01-27T04:19:19.254Z,0
2017-01-27T04:19:59.748Z,0
2017-01-27T04:20:40.247Z,0
2017-01-27T04:21:20.730Z,0
2017-01-27T04:22:01.231Z,0
2017-01-27T04:22:41.728Z,0
2017-01-27T04:23:22.243Z,0
2017-01-27T04:24:02.729Z,0
2017-01-27T04:24:43.243Z,0
2017-01-27T04:25:23.726Z,0
2017-01-27T04:26:04.221Z,0
2017-01-27T04:26:44.721Z,0
2017-01-27T04:27:25.203Z,0
2017-01-27T04:28:05.694Z,0
2017-01-27T04:28:46.183Z,0
2017-01-27T04:29:26.662Z,0
2017-01-27T04:30:07.144Z,0
2017-01-27T04:30:47.649Z,0
2017-01-27T04:31:28.134Z,0
2017-01-27T04:32:08.622Z,0
2017-01-27T04:32:49.103Z,0
2017-01-27T04:33:29.593Z,0
2017-01-27T04:34:10.093Z,0
2017-01-27T04:34:50.582Z,0
2017-01-27T04:35:31.067Z,0
2017-01-27T04:36:11.553Z,0
2017-01-27T04:36:52.143Z,0
2017-01-27T04:37:32.640Z,0
2017-01-27T04:38:13.137Z,0
2017-01-27T04:38:53.778Z,0
2017-01-27T04:39:34.231Z,0
2017-01-27T04:40:14.761Z,0
2017-01-27T04:40:56.456Z,0
2017-01-27T04:41:36.949Z,0
2017-01-27T04:42:17.453Z,0
2017-01-27T04:42:57.967Z,0
2017-01-27T04:43:38.451Z,0
2017-01-27T04:44:19.489Z,0
2017-01-27T04:44:59.975Z,0
2017-01-27T04:45:40.457Z,0
2017-01-27T04:46:20.964Z,0
2017-01-27T04:47:01.456Z,0
2017-01-27T04:47:41.953Z,0
2017-01-27T04:48:23.439Z,0
2017-01-27T04:49:02.972Z,0
2017-01-27T04:49:43.470Z,0
2017-01-27T04:50:23.972Z,0
2017-01-27T04:51:04.434Z,0
2017-01-27T04:51:44.922Z,0
2017-01-27T04:52:25.409Z,0
2017-01-27T04:53:05.903Z,0
2017-01-27T04:53:46.400Z,0
2017-01-27T04:54:26.902Z,0
2017-01-27T04:55:07.400Z,0
2017-01-27T04:55:47.877Z,0
2017-01-27T04:56:28.400Z,0
2017-01-27T04:57:08.901Z,0
2017-01-27T04:57:49.400Z,0
2017-01-27T04:58:29.887Z,0
2017-01-27T04:59:10.382Z,0
2017-01-27T04:59:50.884Z,0
2017-01-27T05:00:31.379Z,0
2017-01-27T05:01:11.884Z,0
2017-01-27T05:01:52.372Z,0
2017-01-27T05:02:32.859Z,0
2017-01-27T05:03:13.348Z,0
2017-01-27T05:03:53.846Z,0
2017-01-27T05:04:34.328Z,0
2017-01-27T05:05:14.816Z,0
2017-01-27T05:05:55.301Z,0
2017-01-27T05:06:35.840Z,0
2017-01-27T05:07:16.340Z,0
2017-01-27T05:07:56.960Z,0
2017-01-27T05:08:37.459Z,0
2017-01-27T05:09:17.945Z,0
2017-01-27T05:09:58.440Z,0
2017-01-27T05:10:38.937Z,0
2017-01-27T05:11:19.427Z,0
2017-01-27T05:11:59.918Z,0
2017-01-27T05:12:40.394Z,0
2017-01-27T05:13:20.925Z,0
2017-01-27T05:14:01.386Z,0
2017-01-27T05:14:41.881Z,0
2017-01-27T05:15:22.438Z,0
2017-01-27T05:16:04.513Z,0
2017-01-27T05:16:45.760Z,0
2017-01-27T05:17:26.256Z,0
2017-01-27T05:18:06.732Z,0
2017-01-27T05:18:47.227Z,0
2017-01-27T05:19:27.710Z,0
2017-01-27T05:20:08.207Z,0
2017-01-27T05:20:48.706Z,0
2017-01-27T05:21:29.184Z,0
2017-01-27T05:22:09.669Z,0
2017-01-27T05:22:50.153Z,0
2017-01-27T05:23:30.655Z,0
2017-01-27T05:24:11.144Z,0
2017-01-27T05:24:51.632Z,0
2017-01-27T05:25:32.115Z,0
2017-01-27T05:26:12.609Z,0
2017-01-27T05:26:53.116Z,0
2017-01-27T05:27:33.581Z,0
2017-01-27T05:28:14.074Z,0
2017-01-27T05:28:54.559Z,0
2017-01-27T05:29:35.049Z,0
2017-01-27T05:30:15.557Z,0
2017-01-27T05:30:56.041Z,0
2017-01-27T05:31:36.537Z,0
2017-01-27T05:32:18.162Z,0
2017-01-27T05:32:58.647Z,0
2017-01-27T05:33:39.142Z,0
2017-01-27T05:34:19.640Z,0
2017-01-27T05:35:00.125Z,0
2017-01-27T05:35:40.613Z,0
2017-01-27T05:36:21.104Z,0
2017-01-27T05:37:01.605Z,0
2017-01-27T05:37:42.091Z,0
2017-01-27T05:38:22.586Z,0
2017-01-27T05:39:03.086Z,0
2017-01-27T05:39:43.570Z,0
2017-01-27T05:40:24.084Z,0
2017-01-27T05:41:04.565Z,0
2017-01-27T05:41:45.046Z,0
2017-01-27T05:42:25.539Z,0
2017-01-27T05:43:06.028Z,0
2017-01-27T05:43:46.530Z,0
2017-01-27T05:44:27.016Z,0
2017-01-27T05:45:07.500Z,0
2017-01-27T05:45:47.984Z,0
2017-01-27T05:46:28.465Z,0
2017-01-27T05:47:08.972Z,0
2017-01-27T05:47:49.474Z,0
2017-01-27T05:48:29.974Z,0
2017-01-27T05:49:10.465Z,0
2017-01-27T05:49:50.966Z,0
2017-01-27T05:50:31.460Z,0
2017-01-27T05:51:11.968Z,0
2017-01-27T05:51:52.462Z,0
2017-01-27T05:52:32.977Z,0
2017-01-27T05:53:13.456Z,0
2017-01-27T05:53:53.937Z,0
2017-01-27T05:54:34.426Z,0
2017-01-27T05:55:14.917Z,0
2017-01-27T05:55:55.410Z,0
2017-01-27T05:56:35.903Z,0
2017-01-27T05:57:16.394Z,0
2017-01-27T05:57:56.915Z,0
2017-01-27T05:58:37.415Z,0
2017-01-27T05:59:17.884Z,0
2017-01-27T05:59:58.440Z,0
2017-01-27T06:00:38.901Z,0
2017-01-27T06:01:19.393Z,0
2017-01-27T06:01:59.884Z,0
2017-01-27T06:02:40.412Z,0
2017-01-27T06:03:20.909Z,0
2017-01-27T06:04:01.412Z,0
2017-01-27T06:04:41.964Z,0
2017-01-27T06:05:22.456Z,0
2017-01-27T06:06:02.959Z,0
2017-01-27T06:06:43.443Z,0
2017-01-27T06:07:23.934Z,0
2017-01-27T06:08:04.433Z,0
2017-01-27T06:08:44.922Z,0
2017-01-27T06:09:25.407Z,0
2017-01-27T06:10:05.890Z,0
2017-01-27T06:10:46.375Z,0
2017-01-27T06:11:26.873Z,0
2017-01-27T06:12:07.366Z,0
2017-01-27T06:12:47.850Z,0
2017-01-27T06:13:28.345Z,0
2017-01-27T06:14:09.018Z,0
2017-01-27T06:14:49.513Z,0
2017-01-27T06:15:30.001Z,0
2017-01-27T06:16:10.499Z,0
2017-01-27T06:16:50.994Z,0
2017-01-27T06:17:31.502Z,0
2017-01-27T06:18:11.998Z,0
2017-01-27T06:18:52.492Z,0
2017-01-27T06:19:32.986Z,0
2017-01-27T06:20:13.495Z,0
2017-01-27T06:20:53.979Z,0
2017-01-27T06:21:34.491Z,0
2017-01-27T06:22:14.981Z,0
2017-01-27T06:22:55.475Z,0
2017-01-27T06:23:36.150Z,0
2017-01-27T06:24:16.645Z,0
2017-01-27T06:24:57.144Z,0
2017-01-27T06:25:37.642Z,0
2017-01-27T06:26:18.140Z,0
2017-01-27T06:26:58.643Z,0
2017-01-27T06:27:39.138Z,0
2017-01-27T06:28:19.629Z,0
2017-01-27T06:29:00.149Z,0
2017-01-27T06:29:40.641Z,0
2017-01-27T06:30:21.146Z,0
2017-01-27T06:31:01.659Z,0
2017-01-27T06:31:42.160Z,0
2017-01-27T06:32:22.652Z,0
2017-01-27T06:33:03.139Z,0
2017-01-27T06:33:43.623Z,0
2017-01-27T06:34:24.112Z,0
2017-01-27T06:35:04.595Z,0
2017-01-27T06:35:45.072Z,0
2017-01-27T06:36:25.578Z,0
2017-01-27T06:37:06.070Z,0
2017-01-27T06:37:46.559Z,0
2017-01-27T06:38:27.056Z,0
2017-01-27T06:39:07.544Z,0
2017-01-27T06:39:48.869Z,0
2017-01-27T06:40:28.529Z,4
2017-01-27T06:41:09.006Z,4
2017-01-27T06:41:49.483Z,4
2017-01-27T06:42:29.993Z,4
2017-01-27T06:43:10.582Z,4
2017-01-27T06:43:51.073Z,4
2017-01-27T06:44:31.578Z,4
2017-01-27T06:45:12.062Z,4
2017-01-27T06:45:52.557Z,4
2017-01-27T06:46:34.166Z,4
2017-01-27T06:47:14.684Z,4
2017-01-27T06:47:55.163Z,8
2017-01-27T06:48:35.657Z,4
2017-01-27T06:49:16.147Z,4
2017-01-27T06:49:56.637Z,8
2017-01-27T06:50:37.136Z,8
2017-01-27T06:51:17.633Z,8
2017-01-27T06:51:58.120Z,12
2017-01-27T06:52:38.613Z,12
2017-01-27T06:53:19.105Z,12
2017-01-27T06:53:59.594Z,12
2017-01-27T06:54:40.082Z,12
2017-01-27T06:55:20.585Z,16
2017-01-27T06:56:01.078Z,16
2017-01-27T06:56:41.559Z,16
2017-01-27T06:57:22.052Z,20
2017-01-27T06:58:02.550Z,20
2017-01-27T06:58:43.035Z,24
2017-01-27T06:59:23.520Z,24
2017-01-27T07:00:04.011Z,24
2017-01-27T07:00:44.502Z,32
2017-01-27T07:01:24.993Z,36
2017-01-27T07:02:05.486Z,36
2017-01-27T07:02:45.972Z,40
2017-01-27T07:03:26.480Z,40
2017-01-27T07:04:06.964Z,44
2017-01-27T07:04:47.447Z,48
2017-01-27T07:05:27.941Z,52
2017-01-27T07:06:08.443Z,56
2017-01-27T07:06:48.933Z,60
2017-01-27T07:07:29.427Z,60
2017-01-27T07:08:09.919Z,64
2017-01-27T07:08:50.413Z,68
2017-01-27T07:09:30.895Z,72
2017-01-27T07:10:11.393Z,76
2017-01-27T07:10:51.887Z,80
2017-01-27T07:11:32.380Z,84
2017-01-27T07:12:12.865Z,92
2017-01-27T07:12:53.363Z,92
2017-01-27T07:13:33.852Z,100
2017-01-27T07:14:14.354Z,104
2017-01-27T07:14:54.853Z,112
2017-01-27T07:15:35.345Z,112
2017-01-27T07:16:15.856Z,116
2017-01-27T07:16:56.365Z,124
2017-01-27T07:17:36.862Z,128
2017-01-27T07:18:17.360Z,136
2017-01-27T07:18:57.858Z,140
2017-01-27T07:19:38.359Z,148
2017-01-27T07:20:18.847Z,156
2017-01-27T07:20:59.330Z,160
2017-01-27T07:21:39.817Z,168
2017-01-27T07:22:20.322Z,172
2017-01-27T07:23:00.817Z,180
2017-01-27T07:23:41.307Z,188
2017-01-27T07:24:22.038Z,192
2017-01-27T07:25:02.528Z,200
2017-01-27T07:25:43.035Z,208
2017-01-27T07:26:23.516Z,212
2017-01-27T07:27:04.016Z,220
2017-01-27T07:27:44.493Z,232
2017-01-27T07:28:24.981Z,236
2017-01-27T07:29:05.479Z,244
2017-01-27T07:29:45.971Z,256
2017-01-27T07:30:26.458Z,264
2017-01-27T07:31:06.951Z,272
2017-01-27T07:31:47.444Z,284
2017-01-27T07:32:27.932Z,288
2017-01-27T07:33:08.428Z,296
2017-01-27T07:33:48.938Z,308
2017-01-27T07:34:29.451Z,316
2017-01-27T07:35:09.949Z,328
2017-01-27T07:35:51.371Z,336
2017-01-27T07:36:31.878Z,348
2017-01-27T07:37:12.363Z,360
2017-01-27T07:37:52.862Z,372
2017-01-27T07:38:33.355Z,380
2017-01-27T07:39:13.853Z,396
2017-01-27T07:39:54.364Z,404
2017-01-27T07:40:34.834Z,412
2017-01-27T07:41:15.325Z,416
2017-01-27T07:41:55.815Z,428
2017-01-27T07:42:36.310Z,436
2017-01-27T07:43:16.813Z,448
2017-01-27T07:43:57.298Z,460
2017-01-27T07:44:37.789Z,472
2017-01-27T07:45:18.310Z,488
2017-01-27T07:45:58.807Z,500
2017-01-27T07:46:39.297Z,516
2017-01-27T07:47:19.786Z,524
2017-01-27T07:48:00.285Z,536
2017-01-27T07:48:40.767Z,552
2017-01-27T07:49:21.253Z,560
2017-01-27T07:50:01.746Z,572
2017-01-27T07:50:42.246Z,584
2017-01-27T07:51:22.741Z,596
2017-01-27T07:52:03.245Z,608
2017-01-27T07:52:43.743Z,616
2017-01-27T07:53:24.246Z,632
2017-01-27T07:54:04.716Z,644
2017-01-27T07:54:45.212Z,660
2017-01-27T07:55:25.698Z,672
2017-01-27T07:56:06.187Z,688
2017-01-27T07:56:46.691Z,700
2017-01-27T07:57:27.218Z,712
2017-01-27T07:58:07.685Z,724
2017-01-27T07:58:48.185Z,740
2017-01-27T07:59:28.692Z,752
2017-01-27T08:00:09.353Z,756
2017-01-27T08:00:49.832Z,768
2017-01-27T08:01:30.340Z,776
2017-01-27T08:02:10.830Z,788
2017-01-27T08:02:51.317Z,800
2017-01-27T08:03:31.808Z,816
2017-01-27T08:04:12.299Z,828
2017-01-27T08:04:52.793Z,836
2017-01-27T08:05:33.288Z,844
2017-01-27T08:06:13.785Z,856
2017-01-27T08:06:54.287Z,868
2017-01-27T08:07:34.791Z,884
2017-01-27T08:08:15.285Z,896
2017-01-27T08:08:55.790Z,908
2017-01-27T08:09:36.262Z,912
2017-01-27T08:10:16.854Z,924
2017-01-27T08:10:57.339Z,940
2017-01-27T08:11:37.835Z,948
2017-01-27T08:12:18.338Z,964
2017-01-27T08:12:58.829Z,968
2017-01-27T08:13:39.335Z,976
2017-01-27T08:14:19.829Z,984
2017-01-27T08:15:00.335Z,1004
2017-01-27T08:15:40.845Z,1012
2017-01-27T08:16:21.310Z,1016
2017-01-27T08:17:01.827Z,1020
2017-01-27T08:17:42.325Z,1032
2017-01-27T08:18:22.819Z,1036
2017-01-27T08:19:03.306Z,1044
2017-01-27T08:19:43.797Z,1060
2017-01-27T08:20:24.293Z,1072
2017-01-27T08:21:04.781Z,1076
2017-01-27T08:21:45.274Z,1088
2017-01-27T08:22:25.753Z,1092
2017-01-27T08:23:06.261Z,1112
2017-01-27T08:23:46.894Z,1116
2017-01-27T08:24:27.389Z,1120
2017-01-27T08:25:07.876Z,1132
2017-01-27T08:25:48.576Z,1144
2017-01-27T08:26:29.073Z,1140
2017-01-27T08:27:09.575Z,1160
2017-01-27T08:27:50.073Z,1184
2017-01-27T08:28:30.562Z,1196
2017-01-27T08:29:11.057Z,1212
2017-01-27T08:29:51.574Z,1216
2017-01-27T08:30:32.075Z,1212
2017-01-27T08:31:12.557Z,1224
2017-01-27T08:31:53.049Z,1232
2017-01-27T08:32:33.542Z,1240
2017-01-27T08:33:14.032Z,1256
2017-01-27T08:33:54.518Z,1268
2017-01-27T08:34:35.009Z,1264
2017-01-27T08:35:15.520Z,1272
2017-01-27T08:35:56.018Z,1284
2017-01-27T08:36:36.512Z,1280
2017-01-27T08:37:17.011Z,1292
2017-01-27T08:37:57.520Z,1312
2017-01-27T08:38:38.003Z,1316
2017-01-27T08:39:18.497Z,1316
2017-01-27T08:39:58.985Z,1316
2017-01-27T08:40:39.471Z,1324
2017-01-27T08:41:19.962Z,1336
2017-01-27T08:42:00.794Z,1352
2017-01-27T08:42:42.283Z,1348
2017-01-27T08:43:22.788Z,1356
2017-01-27T08:44:03.287Z,1360
2017-01-27T08:44:43.768Z,1376
2017-01-27T08:45:24.272Z,1392
2017-01-27T08:46:04.774Z,1400
2017-01-27T08:46:45.261Z,1400
2017-01-27T08:47:25.741Z,1404
2017-01-27T08:48:06.255Z,1412
2017-01-27T08:48:46.736Z,1400
2017-01-27T08:49:27.232Z,1416
2017-01-27T08:50:07.730Z,1416
2017-01-27T08:50:48.223Z,1420
2017-01-27T08:51:28.729Z,1436
2017-01-27T08:52:09.219Z,1436
2017-01-27T08:52:49.704Z,1432
2017-01-27T08:53:30.200Z,1444
2017-01-27T08:54:10.694Z,1448
2017-01-27T08:54:51.187Z,1444
2017-01-27T08:55:31.694Z,1436
2017-01-27T08:56:12.181Z,1428
2017-01-27T08:56:52.677Z,1436
2017-01-27T08:57:33.176Z,1444
2017-01-27T08:58:13.672Z,1444
2017-01-27T08:58:54.168Z,1444
2017-01-27T08:59:34.660Z,1452
2017-01-27T09:00:15.162Z,1456
2017-01-27T09:00:55.664Z,1452
2017-01-27T09:01:36.164Z,1452
2017-01-27T09:02:16.656Z,1456
2017-01-27T09:02:57.138Z,1460
2017-01-27T09:03:37.628Z,1464
2017-01-27T09:04:18.131Z,1460
2017-01-27T09:04:58.621Z,1472
2017-01-27T09:05:39.101Z,1488
2017-01-27T09:06:19.615Z,1488
2017-01-27T09:07:00.096Z,1484
2017-01-27T09:07:40.592Z,1492
2017-01-27T09:08:21.113Z,1496
2017-01-27T09:09:01.574Z,1516
2017-01-27T09:09:42.066Z,1520
2017-01-27T09:10:22.578Z,1524
2017-01-27T09:11:03.074Z,1520
2017-01-27T09:11:43.573Z,1516
2017-01-27T09:12:24.063Z,1528
2017-01-27T09:13:04.560Z,1524
2017-01-27T09:13:45.055Z,1528
2017-01-27T09:14:25.535Z,1532
2017-01-27T09:15:06.023Z,1532
2017-01-27T09:15:46.515Z,1532
2017-01-27T09:16:27.017Z,1532
2017-01-27T09:17:07.505Z,1528
2017-01-27T09:17:48.001Z,1536
2017-01-27T09:18:28.501Z,1544
2017-01-27T09:19:08.989Z,1552
2017-01-27T09:19:49.477Z,1548
2017-01-27T09:20:29.992Z,1540
2017-01-27T09:21:10.475Z,1536
2017-01-27T09:21:50.968Z,1528
2017-01-27T09:22:31.461Z,1524
2017-01-27T09:23:11.952Z,1528
2017-01-27T09:23:52.448Z,1528
2017-01-27T09:24:32.943Z,1516
2017-01-27T09:25:13.433Z,1520
2017-01-27T09:25:53.944Z,1520
2017-01-27T09:26:34.456Z,1524
2017-01-27T09:27:14.915Z,1524
2017-01-27T09:27:55.397Z,1528
2017-01-27T09:28:35.893Z,1528
2017-01-27T09:29:16.387Z,1524
2017-01-27T09:29:56.876Z,1520
2017-01-27T09:30:37.411Z,1520
2017-01-27T09:31:17.916Z,1524
2017-01-27T09:31:58.409Z,1524
2017-01-27T09:32:38.899Z,1528
2017-01-27T09:33:19.389Z,1528
2017-01-27T09:33:59.887Z,1524
2017-01-27T09:34:40.380Z,1516
2017-01-27T09:35:20.897Z,1512
2017-01-27T09:36:01.392Z,1500
2017-01-27T09:36:41.903Z,1500
2017-01-27T09:37:22.406Z,1504
2017-01-27T09:38:02.922Z,1504
2017-01-27T09:38:43.426Z,1488
2017-01-27T09:39:23.927Z,1476
2017-01-27T09:40:04.423Z,1480
2017-01-27T09:40:44.929Z,1476
2017-01-27T09:41:25.416Z,1484
2017-01-27T09:42:05.923Z,1476
2017-01-27T09:42:46.424Z,1484
2017-01-27T09:43:26.926Z,1480
2017-01-27T09:44:07.419Z,1480
2017-01-27T09:44:47.929Z,1480